createdAt,value
2023-04-05T00:01:25.449Z,5.00
2023-04-05T00:03:57.603Z,5.00
2023-04-05T00:06:27.082Z,5.10
2023-04-05T00:08:55.934Z,5.00
2023-04-05T00:11:29.860Z,5.00
2023-04-05T00:13:57.857Z,4.90
2023-04-05T00:16:26.052Z,4.90
2023-04-05T00:19:00.216Z,4.70
2023-04-05T00:21:29.005Z,4.60
2023-04-05T00:23:58.659Z,4.60
2023-04-05T00:26:28.316Z,4.30
2023-04-05T00:28:58.754Z,4.30
2023-04-05T00:31:26.823Z,4.00
2023-04-05T00:33:55.929Z,4.20
2023-04-05T00:36:26.349Z,3.70
2023-04-05T00:38:54.551Z,3.50
2023-04-05T00:41:22.493Z,3.80
2023-04-05T00:43:50.481Z,4.10
2023-04-05T00:46:18.910Z,3.60
2023-04-05T00:48:47.148Z,3.70
2023-04-05T00:51:15.167Z,3.90
2023-04-05T00:53:44.975Z,4.10
2023-04-05T00:56:13.918Z,4.10
2023-04-05T00:58:44.783Z,3.60
2023-04-05T01:01:14.903Z,3.50
2023-04-05T01:03:45.960Z,3.70
2023-04-05T01:06:21.972Z,3.50
2023-04-05T01:08:57.066Z,3.40
2023-04-05T01:11:26.312Z,2.90
2023-04-05T01:13:59.067Z,3.00
2023-04-05T01:16:27.477Z,3.20
2023-04-05T01:18:56.779Z,3.20
2023-04-05T01:21:38.223Z,2.90
2023-04-05T01:24:14.998Z,2.80
2023-04-05T01:26:47.816Z,2.80
2023-04-05T01:29:27.082Z,2.80
2023-04-05T01:31:58.686Z,2.80
2023-04-05T01:34:31.191Z,3.00
2023-04-05T01:37:02.611Z,3.10
2023-04-05T01:39:32.136Z,2.80
2023-04-05T01:42:00.269Z,2.70
2023-04-05T01:44:29.842Z,2.70
2023-04-05T01:46:57.910Z,2.70
2023-04-05T01:49:26.673Z,2.90
2023-04-05T01:51:54.733Z,2.70
2023-04-05T01:54:22.896Z,2.70
2023-04-05T01:56:51.089Z,2.90
2023-04-05T01:59:20.397Z,2.90
2023-04-05T02:01:49.825Z,2.80
2023-04-05T02:04:17.878Z,2.80
2023-04-05T02:06:45.917Z,2.80
2023-04-05T02:09:16.154Z,2.70
2023-04-05T02:11:46.561Z,2.50
2023-04-05T02:14:14.553Z,2.50
2023-04-05T02:16:45.793Z,2.80
2023-04-05T02:19:26.039Z,2.80
2023-04-05T02:21:58.655Z,2.90
2023-04-05T02:24:27.224Z,2.70
2023-04-05T02:26:56.576Z,2.50
2023-04-05T02:29:27.338Z,2.40
2023-04-05T02:31:57.165Z,2.10
2023-04-05T02:34:27.302Z,2.30
2023-04-05T02:36:57.328Z,2.50
2023-04-05T02:39:26.391Z,2.40
2023-04-05T02:41:54.351Z,2.50
2023-04-05T02:44:22.357Z,2.70
2023-04-05T02:46:54.534Z,2.80
2023-04-05T02:49:29.608Z,2.60
2023-04-05T02:52:00.044Z,1.90
2023-04-05T02:54:28.166Z,2.10
2023-04-05T02:57:03.620Z,2.10
2023-04-05T02:59:41.099Z,2.00
2023-04-05T03:02:10.164Z,1.90
2023-04-05T03:04:40.740Z,2.20
2023-04-05T03:07:10.459Z,2.30
2023-04-05T03:09:40.854Z,2.40
2023-04-05T03:12:11.502Z,2.50
2023-04-05T03:14:42.822Z,2.50
2023-04-05T03:17:15.414Z,2.50
2023-04-05T03:19:49.056Z,1.60
2023-04-05T03:22:22.288Z,1.50
2023-04-05T03:24:50.665Z,1.40
2023-04-05T03:27:20.970Z,1.50
2023-04-05T03:30:02.303Z,1.70
2023-04-05T03:32:33.358Z,1.90
2023-04-05T03:35:13.242Z,2.10
2023-04-05T03:37:47.519Z,2.30
2023-04-05T03:40:15.950Z,2.10
2023-04-05T03:42:45.464Z,2.10
2023-04-05T03:45:13.670Z,2.20
2023-04-05T03:47:41.763Z,2.30
2023-04-05T03:50:12.388Z,2.40
2023-04-05T03:52:40.350Z,2.40
2023-04-05T03:55:09.555Z,2.40
2023-04-05T03:57:38.264Z,2.40
2023-04-05T04:00:19.856Z,2.00
2023-04-05T04:03:04.137Z,1.90
2023-04-05T04:05:39.327Z,1.90
2023-04-05T04:08:09.712Z,1.90
2023-04-05T04:10:38.894Z,1.80
2023-04-05T04:13:15.889Z,1.90
2023-04-05T04:15:44.150Z,1.90
2023-04-05T04:18:23.402Z,1.90
2023-04-05T04:21:17.158Z,2.00
2023-04-05T04:23:57.650Z,2.10
2023-04-05T04:26:48.468Z,2.10
2023-04-05T04:29:46.835Z,2.10
2023-04-05T04:32:47.055Z,2.10
2023-04-05T04:35:47.121Z,2.10
2023-04-05T04:38:36.922Z,2.00
2023-04-05T04:41:11.396Z,1.50
2023-04-05T04:43:58.629Z,1.50
2023-04-05T04:46:43.680Z,1.70
2023-04-05T04:49:31.541Z,1.70
2023-04-05T04:52:00.994Z,1.60
2023-04-05T04:54:34.118Z,1.40
2023-04-05T04:57:02.547Z,1.10
2023-04-05T04:59:30.985Z,1.10
2023-04-05T05:01:59.017Z,1.20
2023-04-05T05:04:27.132Z,1.30
2023-04-05T05:06:55.338Z,1.40
2023-04-05T05:09:23.610Z,1.50
2023-04-05T05:11:59.611Z,1.40
2023-04-05T05:14:27.694Z,1.30
2023-04-05T05:16:59.161Z,1.40
2023-04-05T05:19:31.592Z,1.50
2023-04-05T05:22:00.076Z,1.50
2023-04-05T05:24:28.101Z,1.60
2023-04-05T05:26:57.420Z,1.70
2023-04-05T05:29:25.624Z,1.70
2023-04-05T05:31:53.602Z,1.60
2023-04-05T05:34:21.917Z,1.80
2023-04-05T05:36:53.510Z,1.90
2023-04-05T05:39:21.939Z,2.00
2023-04-05T05:41:50.346Z,1.80
2023-04-05T05:44:19.679Z,2.00
2023-04-05T05:46:47.844Z,1.80
2023-04-05T05:49:16.404Z,1.80
2023-04-05T05:51:44.382Z,1.80
2023-04-05T05:54:12.533Z,1.90
2023-04-05T05:56:40.704Z,1.80
2023-04-05T05:59:08.949Z,1.90
2023-04-05T06:01:42.653Z,2.00
2023-04-05T06:04:11.078Z,2.20
2023-04-05T06:06:40.221Z,2.30
2023-04-05T06:09:08.301Z,2.30
2023-04-05T06:11:38.992Z,2.40
2023-04-05T06:14:12.955Z,2.40
2023-04-05T06:16:42.345Z,2.50
2023-04-05T06:19:12.885Z,2.80
2023-04-05T06:21:40.923Z,2.80
2023-04-05T06:24:09.045Z,2.80
2023-04-05T06:26:37.121Z,2.80
2023-04-05T06:29:07.092Z,3.10
2023-04-05T06:31:36.741Z,3.40
2023-04-05T06:34:06.280Z,4.10
2023-04-05T06:36:34.846Z,4.60
2023-04-05T06:39:03.229Z,4.90
2023-04-05T06:41:31.200Z,5.60
2023-04-05T06:43:59.220Z,5.90
2023-04-05T06:46:28.531Z,6.20
2023-04-05T06:48:56.742Z,6.20
2023-04-05T06:51:27.071Z,6.00
2023-04-05T06:53:55.044Z,6.20
2023-04-05T06:56:23.337Z,5.90
2023-04-05T06:58:51.967Z,6.00
2023-04-05T07:01:20.095Z,5.80
2023-04-05T07:03:49.397Z,5.80
2023-04-05T07:06:17.610Z,5.70
2023-04-05T07:08:47.000Z,5.80
2023-04-05T07:11:15.468Z,5.60
2023-04-05T07:13:43.413Z,5.70
2023-04-05T07:16:11.481Z,5.90
2023-04-05T07:18:39.609Z,6.10
2023-04-05T07:21:07.712Z,6.40
2023-04-05T07:23:35.880Z,6.60
2023-04-05T07:26:05.876Z,7.00
2023-04-05T07:28:36.089Z,7.30
2023-04-05T07:31:04.592Z,7.30
2023-04-05T07:33:32.869Z,7.50
2023-04-05T07:36:01.122Z,7.50
2023-04-05T07:38:30.026Z,7.80
2023-04-05T07:40:59.405Z,7.80
2023-04-05T07:43:29.771Z,8.00
2023-04-05T07:46:02.501Z,7.90
2023-04-05T07:48:31.007Z,7.80
2023-04-05T07:51:03.819Z,8.00
2023-04-05T07:53:31.902Z,8.10
2023-04-05T07:56:05.037Z,8.10
2023-04-05T07:58:34.727Z,8.20
2023-04-05T08:01:03.030Z,8.40
2023-04-05T08:03:31.528Z,8.40
2023-04-05T08:06:00.001Z,8.40
2023-04-05T08:08:28.325Z,8.70
2023-04-05T08:10:56.341Z,8.40
2023-04-05T08:13:24.955Z,8.50
2023-04-05T08:15:56.296Z,8.50
2023-04-05T08:18:24.628Z,8.50
2023-04-05T08:20:52.804Z,8.70
2023-04-05T08:23:21.643Z,8.70
2023-04-05T08:25:49.814Z,9.00
2023-04-05T08:28:18.212Z,9.00
2023-04-05T08:30:47.315Z,8.80
2023-04-05T08:33:16.902Z,8.90
2023-04-05T08:35:45.542Z,9.10
2023-04-05T08:38:13.571Z,9.20
2023-04-05T08:40:42.922Z,8.90
2023-04-05T08:43:12.402Z,9.20
2023-04-05T08:45:43.735Z,9.30
2023-04-05T08:48:11.888Z,9.30
2023-04-05T08:50:42.153Z,9.50
2023-04-05T08:53:12.898Z,9.50
2023-04-05T08:55:42.160Z,9.60
2023-04-05T08:58:13.983Z,9.60
2023-04-05T09:00:42.877Z,9.70
2023-04-05T09:03:14.112Z,9.60
2023-04-05T09:05:46.845Z,9.70
2023-04-05T09:08:15.687Z,9.80
2023-04-05T09:10:44.328Z,9.90
2023-04-05T09:13:13.323Z,10.00
2023-04-05T09:15:41.589Z,10.00
2023-04-05T09:18:18.873Z,10.10
2023-04-05T09:21:02.888Z,10.30
2023-04-05T09:23:30.951Z,10.30
2023-04-05T09:25:59.016Z,10.30
2023-04-05T09:28:40.733Z,10.60
2023-04-05T09:31:08.778Z,10.60
2023-04-05T09:33:36.824Z,10.60
2023-04-05T09:36:06.799Z,10.90
2023-04-05T09:38:44.743Z,10.70
2023-04-05T09:41:12.756Z,10.80
2023-04-05T09:43:41.751Z,11.20
2023-04-05T09:46:29.530Z,10.80
2023-04-05T09:48:58.125Z,10.80
2023-04-05T09:51:33.120Z,10.90
2023-04-05T09:54:02.142Z,11.00
2023-04-05T09:56:31.086Z,11.10
2023-04-05T09:59:02.671Z,11.10
2023-04-05T10:01:31.864Z,11.20
2023-04-05T10:04:00.896Z,11.10
2023-04-05T10:06:38.609Z,11.10
2023-04-05T10:09:10.013Z,11.40
2023-04-05T10:11:39.293Z,10.90
2023-04-05T10:14:08.092Z,10.90
2023-04-05T10:16:39.295Z,10.90
2023-04-05T10:19:10.221Z,10.60
2023-04-05T10:21:42.708Z,11.00
2023-04-05T10:24:17.974Z,11.30
2023-04-05T10:26:49.766Z,11.00
2023-04-05T10:29:20.891Z,11.40
2023-04-05T10:31:52.239Z,11.20
2023-04-05T10:34:24.756Z,11.10
2023-04-05T10:36:57.195Z,11.00
2023-04-05T10:39:28.394Z,10.80
2023-04-05T10:42:00.873Z,10.80
2023-04-05T10:44:31.365Z,10.90
2023-04-05T10:46:59.396Z,10.70
2023-04-05T10:49:30.885Z,11.30
2023-04-05T10:52:00.465Z,11.90
2023-04-05T10:54:30.885Z,12.40
2023-04-05T10:56:59.606Z,12.30
2023-04-05T10:59:28.483Z,12.20
2023-04-05T11:01:56.921Z,12.30
2023-04-05T11:04:25.041Z,11.90
2023-04-05T11:07:07.978Z,11.20
2023-04-05T11:09:37.515Z,11.60
2023-04-05T11:12:05.645Z,12.10
2023-04-05T11:14:41.285Z,11.50
2023-04-05T11:17:25.697Z,11.80
2023-04-05T11:19:59.206Z,12.00
2023-04-05T11:22:28.133Z,12.00
2023-04-05T11:24:59.416Z,11.70
2023-04-05T11:27:28.789Z,11.50
2023-04-05T11:29:57.489Z,11.90
2023-04-05T11:32:38.859Z,11.80
2023-04-05T11:35:07.824Z,12.20
2023-04-05T11:37:55.320Z,12.40
2023-04-05T11:40:29.123Z,12.30
2023-04-05T11:43:01.121Z,12.50
2023-04-05T11:45:34.068Z,12.50
2023-04-05T11:48:06.002Z,12.20
2023-04-05T11:50:34.420Z,12.30
2023-04-05T11:53:08.949Z,12.40
2023-04-05T11:55:40.524Z,12.50
2023-04-05T11:58:15.708Z,12.40
2023-04-05T12:00:44.021Z,12.20
2023-04-05T12:03:12.902Z,12.70
2023-04-05T12:05:49.038Z,13.00
2023-04-05T12:08:17.302Z,12.50
2023-04-05T12:10:54.682Z,12.90
2023-04-05T12:13:29.761Z,12.90
2023-04-05T12:16:01.900Z,13.00
2023-04-05T12:18:37.227Z,13.00
2023-04-05T12:21:07.842Z,12.90
2023-04-05T12:23:37.230Z,13.10
2023-04-05T12:26:07.744Z,13.10
2023-04-05T12:28:51.824Z,13.50
2023-04-05T12:31:35.984Z,13.30
2023-04-05T12:34:04.122Z,13.10
2023-04-05T12:36:33.054Z,13.10
2023-04-05T12:39:01.612Z,13.20
2023-04-05T12:41:31.666Z,12.90
2023-04-05T12:44:01.913Z,13.00
2023-04-05T12:46:39.623Z,13.40
2023-04-05T12:49:11.661Z,13.30
2023-04-05T12:51:43.010Z,13.20
2023-04-05T12:54:12.770Z,13.50
2023-04-05T12:56:42.325Z,13.90
2023-04-05T12:59:10.518Z,13.90
2023-04-05T13:01:39.010Z,14.10
2023-04-05T13:04:15.291Z,13.30
2023-04-05T13:06:44.724Z,13.80
2023-04-05T13:09:12.763Z,13.90
2023-04-05T13:11:42.180Z,14.10
2023-04-05T13:14:10.511Z,14.50
2023-04-05T13:16:38.625Z,14.60
2023-04-05T13:19:06.826Z,14.70
2023-04-05T13:21:34.837Z,14.30
2023-04-05T13:24:02.873Z,14.10
2023-04-05T13:26:30.889Z,14.00
2023-04-05T13:29:00.275Z,13.70
2023-04-05T13:31:28.329Z,13.40
2023-04-05T13:33:58.605Z,13.40
2023-04-05T13:36:27.248Z,13.90
2023-04-05T13:38:55.362Z,14.10
2023-04-05T13:41:23.380Z,14.40
2023-04-05T13:43:51.745Z,13.90
2023-04-05T13:46:21.266Z,14.10
2023-04-05T13:48:49.560Z,13.90
2023-04-05T13:51:19.468Z,14.70
2023-04-05T13:53:47.539Z,14.40
2023-04-05T13:56:15.626Z,14.40
2023-04-05T13:58:43.932Z,13.80
2023-04-05T14:01:13.874Z,13.20
2023-04-05T14:03:43.622Z,13.10
2023-04-05T14:06:12.385Z,13.20
2023-04-05T14:08:40.446Z,13.20
2023-04-05T14:11:08.551Z,13.50
2023-04-05T14:13:37.449Z,13.90
2023-04-05T14:16:06.661Z,14.00
2023-04-05T14:18:34.960Z,13.60
2023-04-05T14:21:04.578Z,14.00
2023-04-05T14:23:32.850Z,14.80
2023-04-05T14:26:02.374Z,14.80
2023-04-05T14:28:30.913Z,15.20
2023-04-05T14:31:00.546Z,15.40
2023-04-05T14:33:28.621Z,15.60
2023-04-05T14:35:56.871Z,15.50
2023-04-05T14:38:26.942Z,15.10
2023-04-05T14:40:55.079Z,15.10
2023-04-05T14:43:25.886Z,15.10
2023-04-05T14:45:55.331Z,15.10
2023-04-05T14:48:23.562Z,15.30
2023-04-05T14:50:52.204Z,15.20
2023-04-05T14:53:21.348Z,15.00
2023-04-05T14:55:52.453Z,14.60
2023-04-05T14:58:20.701Z,14.80
2023-04-05T15:00:49.140Z,14.60
2023-04-05T15:03:19.574Z,14.80
2023-04-05T15:05:49.540Z,14.70
2023-04-05T15:08:17.727Z,14.90
2023-04-05T15:10:47.684Z,14.30
2023-04-05T15:13:19.852Z,14.40
2023-04-05T15:15:48.026Z,14.50
2023-04-05T15:18:16.602Z,14.40
2023-04-05T15:20:44.776Z,14.00
2023-04-05T15:23:12.986Z,13.60
2023-04-05T15:25:41.267Z,13.70
2023-04-05T15:28:09.564Z,13.20
2023-04-05T15:30:39.907Z,13.50
2023-04-05T15:33:08.165Z,13.50
2023-04-05T15:35:37.714Z,13.30
2023-04-05T15:38:05.927Z,13.60
2023-04-05T15:40:34.426Z,13.80
2023-04-05T15:43:03.423Z,13.80
2023-04-05T15:45:31.846Z,13.90
2023-04-05T15:48:02.604Z,13.80
2023-04-05T15:50:31.033Z,13.80
2023-04-05T15:53:02.370Z,13.60
2023-04-05T15:55:30.647Z,13.40
2023-04-05T15:57:58.888Z,13.60
2023-04-05T16:00:28.751Z,13.20
2023-04-05T16:03:00.647Z,13.00
2023-04-05T16:05:30.741Z,13.10
2023-04-05T16:07:59.527Z,13.20
2023-04-05T16:10:28.071Z,13.20
2023-04-05T16:12:56.247Z,13.30
2023-04-05T16:15:24.608Z,13.30
2023-04-05T16:17:52.862Z,13.10
2023-04-05T16:20:21.993Z,13.10
2023-04-05T16:22:52.748Z,13.00
2023-04-05T16:25:20.885Z,12.80
2023-04-05T16:27:49.051Z,12.80
2023-04-05T16:30:17.421Z,12.80
2023-04-05T16:32:45.673Z,12.70
2023-04-05T16:35:13.758Z,12.80
2023-04-05T16:37:42.919Z,12.80
2023-04-05T16:40:12.843Z,12.70
2023-04-05T16:42:41.041Z,12.60
2023-04-05T16:45:09.778Z,12.50
2023-04-05T16:47:37.935Z,12.40
2023-04-05T16:50:06.643Z,12.50
2023-04-05T16:52:34.866Z,12.40
2023-04-05T16:55:02.980Z,12.50
2023-04-05T16:57:32.835Z,12.40
2023-04-05T17:00:02.201Z,12.20
2023-04-05T17:02:31.780Z,12.00
2023-04-05T17:05:00.054Z,11.90
2023-04-05T17:07:28.261Z,11.90
2023-04-05T17:09:57.941Z,11.80
2023-04-05T17:12:26.060Z,11.80
2023-04-05T17:14:55.788Z,11.90
2023-04-05T17:17:23.984Z,12.00
2023-04-05T17:19:53.180Z,11.90
2023-04-05T17:22:21.784Z,12.00
2023-04-05T17:24:50.747Z,11.90
2023-04-05T17:27:20.655Z,11.90
2023-04-05T17:29:48.917Z,11.80
2023-04-05T17:32:18.462Z,11.70
2023-04-05T17:34:47.124Z,11.60
2023-04-05T17:37:15.435Z,11.60
2023-04-05T17:39:43.417Z,11.60
2023-04-05T17:42:11.521Z,11.70
2023-04-05T17:44:39.609Z,11.60
2023-04-05T17:47:09.593Z,11.60
2023-04-05T17:49:39.511Z,11.50
2023-04-05T17:52:08.588Z,11.40
2023-04-05T17:54:37.633Z,11.50
2023-04-05T17:57:05.979Z,11.10
2023-04-05T17:59:34.118Z,10.60
2023-04-05T18:02:02.414Z,10.10
2023-04-05T18:04:30.641Z,9.80
2023-04-05T18:07:00.273Z,9.70
2023-04-05T18:09:28.756Z,9.60
2023-04-05T18:11:59.436Z,9.50
2023-04-05T18:14:27.627Z,9.40
2023-04-05T18:16:56.246Z,9.30
2023-04-05T18:19:24.500Z,9.10
2023-04-05T18:21:52.645Z,9.10
2023-04-05T18:24:22.162Z,8.90
2023-04-05T18:26:50.705Z,8.60
2023-04-05T18:29:18.902Z,8.40
2023-04-05T18:31:47.098Z,8.40
2023-04-05T18:34:15.173Z,8.50
2023-04-05T18:36:43.959Z,8.50
2023-04-05T18:39:12.221Z,8.40
2023-04-05T18:41:41.957Z,8.40
2023-04-05T18:44:10.326Z,8.20
2023-04-05T18:46:38.708Z,8.00
2023-04-05T18:49:07.953Z,7.90
2023-04-05T18:51:36.455Z,7.90
2023-04-05T18:54:04.669Z,8.00
2023-04-05T18:56:33.005Z,7.70
2023-04-05T18:59:02.795Z,7.50
2023-04-05T19:01:31.514Z,7.40
2023-04-05T19:04:00.517Z,7.30
2023-04-05T19:06:30.025Z,7.20
2023-04-05T19:12:41.866Z,7.00
2023-04-05T19:15:14.395Z,7.20
2023-04-05T19:17:43.212Z,7.30
2023-04-05T19:20:11.987Z,7.30
2023-04-05T19:22:40.515Z,7.30
2023-04-05T19:25:09.209Z,6.70
2023-04-05T19:27:39.557Z,6.20
2023-04-05T19:30:10.689Z,6.30
2023-04-05T19:32:50.340Z,6.60
2023-04-05T19:35:26.825Z,6.70
2023-04-05T19:38:05.395Z,6.40
2023-04-05T19:40:39.770Z,6.20
2023-04-05T19:43:13.497Z,6.10
2023-04-05T19:45:45.554Z,6.10
2023-04-05T19:48:46.683Z,6.10
2023-04-05T19:51:29.258Z,5.90
2023-04-05T19:54:10.024Z,6.20
2023-04-05T19:57:01.290Z,6.50
2023-04-05T19:59:52.281Z,6.60
2023-04-05T20:02:50.314Z,6.20
2023-04-05T20:05:57.124Z,5.80
2023-04-05T20:08:38.806Z,5.20
2023-04-05T20:11:19.125Z,4.80
2023-04-05T20:13:52.640Z,4.80
2023-04-05T20:20:01.040Z,5.20
2023-04-05T20:23:13.832Z,5.40
2023-04-05T20:25:55.913Z,5.60
2023-04-05T20:28:38.525Z,5.90
2023-04-05T20:31:10.158Z,5.60
2023-04-05T20:33:46.237Z,5.10
2023-04-05T20:36:19.401Z,4.90
2023-04-05T20:38:52.518Z,5.20
2023-04-05T20:41:29.981Z,5.20
2023-04-05T20:44:09.330Z,5.30
2023-04-05T20:46:54.828Z,5.20
2023-04-05T20:49:51.373Z,5.00
2023-04-05T20:52:25.789Z,4.80
2023-04-05T20:54:59.276Z,5.00
2023-04-05T20:57:33.175Z,4.90
2023-04-05T21:00:04.813Z,5.00
2023-04-05T21:06:34.872Z,5.10
2023-04-05T21:09:07.408Z,4.70
2023-04-05T21:11:40.566Z,4.50
2023-04-05T21:14:27.244Z,4.60
2023-04-05T21:17:07.853Z,4.80
2023-04-05T21:19:44.372Z,4.60
2023-04-05T21:22:19.301Z,4.70
2023-04-05T21:24:56.532Z,4.90
2023-04-05T21:27:27.284Z,4.90
2023-04-05T21:29:56.774Z,4.30
2023-04-05T21:32:25.125Z,3.60
2023-04-05T21:34:53.263Z,3.50
2023-04-05T21:37:21.441Z,3.40
2023-04-05T21:39:49.556Z,3.40
2023-04-05T21:42:17.640Z,3.50
2023-04-05T21:44:45.824Z,3.60
2023-04-05T21:47:17.484Z,3.90
2023-04-05T21:49:45.610Z,3.70
2023-04-05T21:52:14.514Z,3.70
2023-04-05T21:54:43.894Z,4.00
2023-04-05T21:57:11.987Z,4.00
2023-04-05T21:59:41.127Z,3.80
2023-04-05T22:02:09.370Z,3.80
2023-04-05T22:04:39.561Z,3.80
2023-04-05T22:07:08.467Z,3.60
2023-04-05T22:09:36.793Z,3.70
2023-04-05T22:12:05.295Z,3.80
2023-04-05T22:14:33.596Z,3.80
2023-04-05T22:17:03.178Z,3.70
2023-04-05T22:19:35.658Z,3.80
2023-04-05T22:22:05.243Z,3.80
2023-04-05T22:24:33.345Z,3.80
2023-04-05T22:27:01.987Z,3.80
2023-04-05T22:29:31.935Z,3.60
2023-04-05T22:32:00.328Z,3.60
2023-04-05T22:34:28.501Z,3.50
2023-04-05T22:36:56.708Z,3.40
2023-04-05T22:39:27.688Z,3.40
2023-04-05T22:41:56.245Z,3.30
2023-04-05T22:44:25.216Z,3.30
2023-04-05T22:46:53.438Z,3.50
2023-04-05T22:49:22.760Z,3.60
2023-04-05T22:51:50.925Z,3.90
2023-04-05T22:54:19.028Z,3.50
2023-04-05T22:56:48.627Z,3.20
2023-04-05T22:59:17.715Z,3.10
2023-04-05T23:01:47.250Z,3.10
2023-04-05T23:04:16.314Z,3.30
2023-04-05T23:06:44.512Z,3.60
2023-04-05T23:09:12.737Z,3.60
2023-04-05T23:11:40.895Z,3.50
2023-04-05T23:14:10.576Z,3.40
2023-04-05T23:16:39.516Z,3.50
2023-04-05T23:19:07.984Z,3.30
2023-04-05T23:21:36.345Z,3.40
2023-04-05T23:24:06.234Z,3.60
2023-04-05T23:26:35.375Z,3.70
2023-04-05T23:29:03.614Z,3.60
2023-04-05T23:31:33.221Z,3.70
2023-04-05T23:34:02.150Z,3.60
2023-04-05T23:36:30.819Z,3.50
2023-04-05T23:38:58.969Z,3.70
2023-04-05T23:41:27.175Z,3.60
2023-04-05T23:43:55.530Z,2.60
2023-04-05T23:46:23.786Z,2.40
2023-04-05T23:48:54.911Z,2.60
2023-04-05T23:51:23.838Z,2.30
2023-04-05T23:53:52.740Z,2.50
2023-04-05T23:56:21.125Z,2.50
2023-04-05T23:58:49.747Z,2.80
